This is the latest recevied weather packets stored in our database for station/object SQ4LOL-13. If no packets are shown the sender has not sent any weather packets the latest 10 day(s).
| Time | Temp. | Humidity | Pressure | Rain* | Wind** | Luminosity | Snow |
|---|---|---|---|---|---|---|---|
| 1778028030 | 13.33° C | 82% | 989.4 hPa | 0 mm | - | - | - |
| 1778026825 | 13.89° C | 82% | 989.4 hPa | 0 mm | - | - | - |
| 1778024437 | 13.89° C | 80% | 989.5 hPa | 0 mm | - | - | - |
| 1778020203 | 15.56° C | 75% | 989.6 hPa | 0 mm | - | - | - |
| 1778019341 | 15.56° C | 74% | 989.8 hPa | 0 mm | - | - | - |
| 1778016290 | 16.67° C | 72% | 989.7 hPa | 0 mm | - | - | - |
| 1778013882 | 17.22° C | 70% | 989.5 hPa | 0 mm | - | - | - |
| 1778011475 | 18.33° C | 68% | 989.5 hPa | 0 mm | - | - | - |
| 1778010873 | 18.33° C | 67% | 989.5 hPa | 0 mm | - | - | - |
| 1778007863 | 19.44° C | 65% | 989.6 hPa | 0 mm | - | - | - |
| 1778007261 | 19.44° C | 64% | 989.6 hPa | 0 mm | - | - | - |
| 1778006056 | 20° C | 63% | 989.6 hPa | 0 mm | - | - | - |
| 1778003669 | 21.11° C | 60% | 989.5 hPa | 0 mm | - | - | - |
| 1778001240 | 23.33° C | 52% | 989.3 hPa | 0 mm | - | - | - |
| 1777984384 | 27.78° C | 38% | 991.1 hPa | 0 mm | - | - | - |
| 1777983181 | 27.78° C | 38% | 991.3 hPa | 0 mm | - | - | - |
| 1777981375 | 28.33° C | 38% | 991.4 hPa | 0 mm | - | - | - |
| 1777979568 | 26.67° C | 40% | 991.6 hPa | 0 mm | - | - | - |
| 1777974151 | 23.89° C | 48% | 992.6 hPa | 0 mm | - | - | - |
| 1777971160 | 22.22° C | 53% | 993 hPa | 0 mm | - | - | - |
| 1777969334 | 21.11° C | 56% | 993.4 hPa | 0 mm | - | - | - |
| 1777966950 | 20° C | 59% | 993.5 hPa | 0 mm | - | - | - |
| 1777960906 | 16.11° C | 71% | 993.8 hPa | 0 mm | - | - | - |
| 1777959703 | 15° C | 75% | 993.9 hPa | 0 mm | - | - | - |
| 1777951877 | 10.56° C | 77% | 993.9 hPa | 0 mm | - | - | - |
* Rain latest hour (hover to see other rain measurements)
** Current wind speed in m/s (hover to see current wind gust speed)